Terminal Aerodrome Forecast
Issued by NWS

Home | Current Version | Previous Version | Text Only | Print | Product List | Glossary On
Versions: 1 2 3 4 5 6 7 8 9 10 11 12 13 14 15 16 17
549
FTUS46 KHNX 211743
TAFBFL
TAF
KBFL 211743Z 2118/2218 12006KT P6SM BKN050
     FM212000 29005KT P6SM SCT050 BKN100
     FM220900 11013G25KT P6SM BKN100
      TEMPO 2214/2218 10020G35KT=

USA.gov is the U.S. government's official web portal to all federal, state and local government web resources and services.